createdAt,value
2019-02-02T00:02:28.747Z,99028.84
2019-02-02T00:04:59.702Z,99027.05
2019-02-02T00:07:29.777Z,99037.07
2019-02-02T00:09:59.733Z,99044.84
2019-02-02T00:12:29.751Z,99046.96
2019-02-02T00:14:59.891Z,99053.81
2019-02-02T00:17:29.918Z,99053.32
2019-02-02T00:19:59.979Z,99054.28
2019-02-02T00:22:30.077Z,99049.88
2019-02-02T00:25:00.194Z,99052.39
2019-02-02T00:27:40.826Z,99055.47
2019-02-02T00:30:02.055Z,99049.02
2019-02-02T00:32:33.719Z,99048.13
2019-02-02T00:35:12.835Z,99043.38
2019-02-02T00:37:40.047Z,99041.05
2019-02-02T00:40:10.181Z,99039.31
2019-02-02T00:42:40.259Z,99031.55
2019-02-02T00:45:11.228Z,99037.59
2019-02-02T00:47:41.191Z,99044.68
2019-02-02T00:50:11.377Z,99045.36
2019-02-02T00:52:41.375Z,99045.38
2019-02-02T00:55:11.498Z,99045.34
2019-02-02T00:57:53.140Z,99040.12
2019-02-02T01:00:14.911Z,99047.12
2019-02-02T01:02:44.776Z,99038.33
2019-02-02T01:05:15.716Z,99040.97
2019-02-02T01:07:45.527Z,99029.62
2019-02-02T01:10:21.549Z,99040.58
2019-02-02T01:12:51.449Z,99039.34
2019-02-02T01:15:21.486Z,99037.47
2019-02-02T01:17:51.395Z,99046.19
2019-02-02T01:20:24.180Z,99046.97
2019-02-02T01:22:54.153Z,99048.23
2019-02-02T01:25:24.605Z,99046.32
2019-02-02T01:28:04.776Z,99041.14
2019-02-02T01:30:29.153Z,99044.09
2019-02-02T01:32:59.003Z,99045.17
2019-02-02T01:35:28.970Z,99038.90
2019-02-02T01:37:58.884Z,99035.97
2019-02-02T01:40:28.874Z,99022.40
2019-02-02T01:42:58.814Z,99025.97
2019-02-02T01:45:28.829Z,99022.07
2019-02-02T01:47:58.791Z,99013.02
2019-02-02T01:50:29.661Z,99012.14
2019-02-02T01:52:59.599Z,99014.70
2019-02-02T01:55:29.410Z,99008.30
2019-02-02T01:57:59.349Z,99016.14
2019-02-02T02:00:30.543Z,99007.92
2019-02-02T02:03:00.499Z,99005.67
2019-02-02T02:05:30.384Z,98999.95
2019-02-02T02:08:00.376Z,98998.66
2019-02-02T02:10:30.261Z,98995.65
2019-02-02T02:13:00.124Z,99013.86
2019-02-02T02:15:30.070Z,99009.45
2019-02-02T02:18:00.040Z,99019.78
2019-02-02T02:20:29.904Z,99017.83
2019-02-02T02:22:59.833Z,99012.02
2019-02-02T02:25:29.642Z,99015.60
2019-02-02T02:27:59.630Z,99014.56
2019-02-02T02:30:29.581Z,99008.95
2019-02-02T02:32:59.467Z,99007.33
2019-02-02T02:35:29.461Z,99010.40
2019-02-02T02:37:59.482Z,99009.55
2019-02-02T02:40:29.332Z,99018.09
2019-02-02T02:42:59.394Z,99019.83
2019-02-02T02:45:29.471Z,99019.16
2019-02-02T02:47:59.562Z,99023.79
2019-02-02T02:50:29.548Z,99025.48
2019-02-02T02:52:59.569Z,99021.44
2019-02-02T02:55:29.577Z,99029.66
2019-02-02T02:57:59.594Z,99029.83
2019-02-02T03:00:29.735Z,99015.70
2019-02-02T03:03:01.777Z,99013.91
2019-02-02T03:05:31.616Z,99005.70
2019-02-02T03:08:01.608Z,98997.74
2019-02-02T03:10:31.625Z,99007.02
2019-02-02T03:13:01.769Z,99010.86
2019-02-02T03:15:32.198Z,99012.64
2019-02-02T03:18:02.194Z,99004.05
2019-02-02T03:20:32.312Z,99005.56
2019-02-02T03:23:02.414Z,99004.88
2019-02-02T03:25:32.558Z,99009.14
2019-02-02T03:28:02.657Z,99016.52
2019-02-02T03:30:32.692Z,99024.25
2019-02-02T03:33:02.643Z,99026.30
2019-02-02T03:35:32.756Z,99024.08
2019-02-02T03:38:02.722Z,99026.28
2019-02-02T03:40:33.871Z,99021.56
2019-02-02T03:43:03.802Z,99014.95
2019-02-02T03:45:33.646Z,99021.95
2019-02-02T03:48:03.492Z,99022.83
2019-02-02T03:50:33.454Z,99028.98
2019-02-02T03:53:03.504Z,99023.84
2019-02-02T03:55:33.425Z,99033.93
2019-02-02T03:58:03.350Z,99030.36
2019-02-02T04:00:33.358Z,99033.98
2019-02-02T04:03:05.461Z,99029.07
2019-02-02T04:05:35.459Z,99012.89
2019-02-02T04:08:05.407Z,99012.27
2019-02-02T04:10:35.366Z,99020.44
2019-02-02T04:13:06.280Z,99040.41
2019-02-02T04:15:36.520Z,99035.08
2019-02-02T04:18:06.512Z,99038.70
2019-02-02T04:20:36.406Z,99032.01
2019-02-02T04:23:06.393Z,99032.95
2019-02-02T04:25:36.418Z,99034.26
2019-02-02T04:28:06.495Z,99036.52
2019-02-02T04:30:36.533Z,99033.09
2019-02-02T04:33:06.544Z,99044.45
2019-02-02T04:35:36.538Z,99043.30
2019-02-02T04:38:06.545Z,99043.32
2019-02-02T04:40:36.683Z,99049.75
2019-02-02T04:43:06.717Z,99046.53
2019-02-02T04:45:37.999Z,99055.36
2019-02-02T04:48:08.081Z,99047.56
2019-02-02T04:50:38.307Z,99042.74
2019-02-02T04:53:08.383Z,99045.39
2019-02-02T04:55:38.339Z,99047.48
2019-02-02T04:58:08.436Z,99054.33
2019-02-02T05:00:38.439Z,99051.75
2019-02-02T05:03:09.381Z,99050.85
2019-02-02T05:05:39.266Z,99061.38
2019-02-02T05:08:09.489Z,99062.63
2019-02-02T05:10:39.542Z,99060.47
2019-02-02T05:13:09.595Z,99062.31
2019-02-02T05:15:39.559Z,99060.70
2019-02-02T05:18:09.619Z,99070.41
2019-02-02T05:20:39.717Z,99062.28
2019-02-02T05:23:09.742Z,99061.66
2019-02-02T05:25:39.787Z,99059.92
2019-02-02T05:28:09.744Z,99058.75
2019-02-02T05:30:40.869Z,99063.80
2019-02-02T05:33:10.881Z,99063.02
2019-02-02T05:35:41.023Z,99066.30
2019-02-02T05:38:11.139Z,99067.03
2019-02-02T05:40:41.208Z,99061.97
2019-02-02T05:43:11.176Z,99059.53
2019-02-02T05:45:41.150Z,99070.70
2019-02-02T05:48:11.091Z,99075.88
2019-02-02T05:50:41.054Z,99081.22
2019-02-02T05:53:11.046Z,99089.06
2019-02-02T05:55:41.034Z,99096.86
2019-02-02T05:58:10.970Z,99099.38
2019-02-02T06:00:44.649Z,99103.92
2019-02-02T06:03:15.305Z,99109.55
2019-02-02T06:05:47.196Z,99109.16
2019-02-02T06:08:17.234Z,99104.27
2019-02-02T06:10:48.350Z,99105.31
2019-02-02T06:13:18.370Z,99113.23
2019-02-02T06:15:48.503Z,99115.74
2019-02-02T06:18:18.506Z,99108.36
2019-02-02T06:20:48.499Z,99102.14
2019-02-02T06:23:18.576Z,99101.53
2019-02-02T06:25:49.590Z,99105.69
2019-02-02T06:28:19.649Z,99117.63
2019-02-02T06:30:51.353Z,99118.06
2019-02-02T06:33:21.379Z,99119.02
2019-02-02T06:35:51.351Z,99128.95
2019-02-02T06:38:21.470Z,99142.37
2019-02-02T06:40:51.536Z,99149.98
2019-02-02T06:43:21.709Z,99150.36
2019-02-02T06:45:51.724Z,99148.80
2019-02-02T06:48:23.345Z,99143.46
2019-02-02T06:50:53.514Z,99131.92
2019-02-02T06:53:23.537Z,99136.81
2019-02-02T06:55:56.469Z,99141.13
2019-02-02T06:58:27.632Z,99155.06
2019-02-02T07:00:57.743Z,99150.61
2019-02-02T07:03:29.548Z,99157.19
2019-02-02T07:06:00.572Z,99161.27
2019-02-02T07:08:30.722Z,99165.86
2019-02-02T07:11:00.936Z,99165.58
2019-02-02T07:13:30.920Z,99179.88
2019-02-02T07:16:00.916Z,99190.49
2019-02-02T07:18:31.141Z,99197.83
2019-02-02T07:21:13.398Z,99202.16
2019-02-02T07:23:43.367Z,99211.95
2019-02-02T07:26:13.359Z,99192.73
2019-02-02T07:28:43.494Z,99182.36
2019-02-02T07:31:13.410Z,99183.08
2019-02-02T07:33:44.910Z,99188.41
2019-02-02T07:36:15.923Z,99201.34
2019-02-02T07:38:45.966Z,99218.91
2019-02-02T07:41:15.880Z,99219.84
2019-02-02T07:43:47.612Z,99224.27
2019-02-02T07:46:20.341Z,99214.19
2019-02-02T07:48:50.369Z,99213.78
2019-02-02T07:51:20.331Z,99206.83
2019-02-02T07:53:50.300Z,99203.45
2019-02-02T07:56:20.151Z,99189.02
2019-02-02T07:58:51.887Z,99188.62
2019-02-02T08:01:25.162Z,99198.20
2019-02-02T08:03:55.155Z,99182.64
2019-02-02T08:06:25.186Z,99184.44
2019-02-02T08:08:57.000Z,99180.45
2019-02-02T08:11:26.973Z,99183.44
2019-02-02T08:13:56.946Z,99198.50
2019-02-02T08:16:28.281Z,99201.45
2019-02-02T08:18:59.067Z,99211.08
2019-02-02T08:21:29.023Z,99218.47
2019-02-02T08:23:59.249Z,99231.66
2019-02-02T08:26:31.087Z,99235.14
2019-02-02T08:29:02.380Z,99235.59
2019-02-02T08:31:32.521Z,99246.95
2019-02-02T08:34:02.470Z,99262.20
2019-02-02T08:36:32.595Z,99272.09
2019-02-02T08:39:02.575Z,99282.56
2019-02-02T08:41:34.281Z,99281.29
2019-02-02T08:44:05.571Z,99285.11
2019-02-02T08:46:38.026Z,99289.47
2019-02-02T08:49:08.519Z,99283.38
2019-02-02T08:51:45.607Z,99290.02
2019-02-02T08:54:19.640Z,99292.48
2019-02-02T08:56:56.984Z,99304.50
2019-02-02T08:59:26.922Z,99297.57
2019-02-02T09:01:57.225Z,99300.69
2019-02-02T09:04:27.127Z,99300.64
2019-02-02T09:06:59.630Z,99302.69
2019-02-02T09:09:30.181Z,99300.53
2019-02-02T09:12:00.052Z,99304.73
2019-02-02T09:14:30.053Z,99306.02
2019-02-02T09:17:02.094Z,99311.75
2019-02-02T09:19:32.011Z,99315.34
2019-02-02T09:22:02.156Z,99334.11
2019-02-02T09:24:31.997Z,99338.77
2019-02-02T09:27:04.559Z,99338.78
2019-02-02T09:29:38.115Z,99338.78
2019-02-02T09:32:08.182Z,99343.30
2019-02-02T09:34:40.687Z,99333.73
2019-02-02T09:37:10.867Z,99338.12
2019-02-02T09:39:42.744Z,99329.83
2019-02-02T09:42:14.520Z,99331.96
2019-02-02T09:44:44.671Z,99331.96
2019-02-02T09:47:16.416Z,99339.59
2019-02-02T09:49:46.357Z,99355.19
2019-02-02T09:52:18.405Z,99349.11
2019-02-02T09:54:54.152Z,99348.23
2019-02-02T09:57:27.771Z,99351.86
2019-02-02T09:59:55.666Z,99347.34
2019-02-02T10:02:29.908Z,99352.13
2019-02-02T10:04:59.950Z,99348.39
2019-02-02T10:07:29.883Z,99353.47
2019-02-02T10:09:59.968Z,99357.89
2019-02-02T10:12:30.901Z,99359.03
2019-02-02T10:15:03.013Z,99354.56
2019-02-02T10:17:33.937Z,99347.27
2019-02-02T10:20:04.041Z,99339.09
2019-02-02T10:22:36.132Z,99345.55
2019-02-02T10:25:06.962Z,99348.02
2019-02-02T10:27:36.983Z,99353.27
2019-02-02T10:30:10.140Z,99362.99
2019-02-02T10:32:40.600Z,99362.59
2019-02-02T10:35:11.202Z,99360.40
2019-02-02T10:37:42.322Z,99353.03
2019-02-02T10:40:12.536Z,99362.83
2019-02-02T10:42:42.512Z,99364.56
2019-02-02T10:45:14.821Z,99365.64
2019-02-02T10:47:46.668Z,99365.28
2019-02-02T10:50:17.558Z,99360.97
2019-02-02T10:52:47.482Z,99355.73
2019-02-02T10:55:18.526Z,99361.36
2019-02-02T10:57:48.603Z,99364.34
2019-02-02T11:00:22.024Z,99360.91
2019-02-02T11:02:54.129Z,99363.15
2019-02-02T11:05:24.309Z,99370.12
2019-02-02T11:07:54.931Z,99370.74
2019-02-02T11:10:26.759Z,99377.71
2019-02-02T11:12:57.009Z,99384.63
2019-02-02T11:15:34.875Z,99385.77
2019-02-02T11:18:07.466Z,99387.65
2019-02-02T11:20:37.666Z,99386.32
2019-02-02T11:23:07.750Z,99382.20
2019-02-02T11:25:37.995Z,99383.86
2019-02-02T11:28:08.558Z,99382.91
2019-02-02T11:30:40.829Z,99382.98
2019-02-02T11:33:18.615Z,99386.53
2019-02-02T11:35:48.610Z,99395.54
2019-02-02T11:38:18.606Z,99388.09
2019-02-02T11:40:48.933Z,99391.62
2019-02-02T11:43:20.146Z,99382.91
2019-02-02T11:45:51.542Z,99389.08
2019-02-02T11:48:23.914Z,99390.53
2019-02-02T11:50:54.491Z,99386.56
2019-02-02T11:53:24.515Z,99380.61
2019-02-02T11:55:56.134Z,99393.64
2019-02-02T11:58:27.049Z,99388.22
2019-02-02T12:01:00.386Z,99393.34
2019-02-02T12:03:33.999Z,99401.20
2019-02-02T12:06:03.998Z,99397.75
2019-02-02T12:08:34.104Z,99401.27
2019-02-02T12:11:04.110Z,99399.91
2019-02-02T12:13:34.125Z,99406.91
2019-02-02T12:16:04.677Z,99410.75
2019-02-02T12:18:42.905Z,99410.98
2019-02-02T12:21:13.822Z,99419.47
2019-02-02T12:23:43.943Z,99422.75
2019-02-02T12:26:14.107Z,99426.56
2019-02-02T12:28:44.267Z,99423.60
2019-02-02T12:31:23.461Z,99436.36
2019-02-02T12:33:53.767Z,99435.45
2019-02-02T12:36:25.440Z,99440.16
2019-02-02T12:38:55.977Z,99443.71
2019-02-02T12:41:25.981Z,99440.12
2019-02-02T12:43:55.983Z,99443.26
2019-02-02T12:46:30.602Z,99449.88
2019-02-02T12:49:07.883Z,99447.32
2019-02-02T12:51:37.860Z,99450.38
2019-02-02T12:54:07.879Z,99458.20
2019-02-02T12:56:37.855Z,99454.94
2019-02-02T12:59:08.117Z,99457.67
2019-02-02T13:01:40.273Z,99456.31
2019-02-02T13:04:15.080Z,99456.77
2019-02-02T13:06:45.050Z,99456.91
2019-02-02T13:09:15.115Z,99459.48
2019-02-02T13:11:45.145Z,99462.09
2019-02-02T13:14:15.306Z,99460.08
2019-02-02T13:16:51.406Z,99463.92
2019-02-02T13:19:25.832Z,99467.87
2019-02-02T13:21:56.247Z,99476.08
2019-02-02T13:24:28.436Z,99471.23
2019-02-02T13:26:58.747Z,99465.69
2019-02-02T13:29:29.900Z,99460.48
2019-02-02T13:32:00.671Z,99461.77
2019-02-02T13:34:30.790Z,99467.73
2019-02-02T13:37:00.735Z,99473.75
2019-02-02T13:39:31.220Z,99480.23
2019-02-02T13:42:01.413Z,99486.44
2019-02-02T13:44:31.551Z,99490.30
2019-02-02T13:47:01.681Z,99496.88
2019-02-02T13:49:31.710Z,99504.80
2019-02-02T13:52:01.712Z,99508.78
2019-02-02T13:54:32.114Z,99513.17
2019-02-02T13:57:02.384Z,99514.48
2019-02-02T13:59:32.494Z,99521.02
2019-02-02T14:02:03.050Z,99520.64
2019-02-02T14:04:33.508Z,99532.91
2019-02-02T14:07:17.491Z,99526.44
2019-02-02T14:09:38.212Z,99529.04
2019-02-02T14:12:08.465Z,99534.72
2019-02-02T14:14:38.541Z,99528.59
2019-02-02T14:17:08.812Z,99532.03
2019-02-02T14:19:39.519Z,99542.82
2019-02-02T14:22:10.000Z,99539.75
2019-02-02T14:24:40.040Z,99547.56
2019-02-02T14:27:10.460Z,99551.53
2019-02-02T14:29:40.504Z,99550.17
2019-02-02T14:32:11.298Z,99552.45
2019-02-02T14:34:41.338Z,99562.06
2019-02-02T14:37:11.407Z,99557.74
2019-02-02T14:39:44.950Z,99564.23
2019-02-02T14:42:18.222Z,99566.44
2019-02-02T14:44:46.924Z,99571.23
2019-02-02T14:47:16.942Z,99569.44
2019-02-02T14:49:47.220Z,99573.38
2019-02-02T14:52:17.456Z,99572.05
2019-02-02T14:54:47.611Z,99584.23
2019-02-02T14:57:17.574Z,99593.80
2019-02-02T14:59:47.740Z,99592.95
2019-02-02T15:02:17.759Z,99595.63
2019-02-02T15:04:49.258Z,99601.72
2019-02-02T15:10:17.300Z,99608.68
2019-02-02T15:12:47.387Z,99616.06
2019-02-02T15:15:17.859Z,99610.44
2019-02-02T15:17:48.052Z,99623.04
2019-02-02T15:20:38.716Z,99628.82
2019-02-02T15:23:10.277Z,99629.23
2019-02-02T15:25:45.439Z,99635.77
2019-02-02T15:28:18.306Z,99639.62
2019-02-02T15:30:48.706Z,99640.95
2019-02-02T15:33:19.054Z,99642.23
2019-02-02T15:35:49.262Z,99646.59
2019-02-02T15:38:20.180Z,99647.89
2019-02-02T15:40:58.778Z,99658.78
2019-02-02T15:43:22.531Z,99667.91
2019-02-02T15:45:52.802Z,99670.55
2019-02-02T15:48:22.764Z,99669.69
2019-02-02T15:50:53.720Z,99680.12
2019-02-02T15:53:24.224Z,99683.63
2019-02-02T15:55:54.299Z,99684.02
2019-02-02T15:58:24.659Z,99687.10
2019-02-02T16:00:55.128Z,99681.03
2019-02-02T16:03:25.214Z,99687.09
2019-02-02T16:05:55.335Z,99691.05
2019-02-02T16:08:25.607Z,99702.34
2019-02-02T16:10:55.881Z,99706.27
2019-02-02T16:13:28.634Z,99709.32
2019-02-02T16:15:58.959Z,99714.13
2019-02-02T16:18:29.006Z,99718.45
2019-02-02T16:20:58.989Z,99717.16
2019-02-02T16:23:29.336Z,99723.23
2019-02-02T16:25:59.351Z,99728.04
2019-02-02T16:28:32.275Z,99730.66
2019-02-02T16:31:04.520Z,99730.66
2019-02-02T16:33:34.962Z,99732.37
2019-02-02T16:36:09.563Z,99735.00
2019-02-02T16:38:39.557Z,99746.31
2019-02-02T16:41:09.602Z,99748.50
2019-02-02T16:43:46.273Z,99748.07
2019-02-02T16:46:20.758Z,99761.55
2019-02-02T16:48:53.175Z,99762.00
2019-02-02T16:51:24.802Z,99776.81
2019-02-02T16:53:55.683Z,99787.70
2019-02-02T16:56:25.660Z,99790.74
2019-02-02T16:58:58.932Z,99799.00
2019-02-02T17:01:31.512Z,99808.17
2019-02-02T17:04:04.579Z,99816.90
2019-02-02T17:06:33.866Z,99816.88
2019-02-02T17:09:06.871Z,99824.30
2019-02-02T17:11:38.275Z,99831.27
2019-02-02T17:14:08.535Z,99838.22
2019-02-02T17:16:38.580Z,99840.84
2019-02-02T17:19:08.696Z,99849.98
2019-02-02T17:21:38.690Z,99863.92
2019-02-02T17:24:08.786Z,99861.33
2019-02-02T17:26:41.433Z,99865.25
2019-02-02T17:29:10.531Z,99865.68
2019-02-02T17:31:43.732Z,99866.55
2019-02-02T17:34:13.877Z,99871.78
2019-02-02T17:36:43.815Z,99876.55
2019-02-02T17:39:16.376Z,99881.80
2019-02-02T17:41:46.598Z,99892.23
2019-02-02T17:44:21.023Z,99903.98
2019-02-02T17:46:51.626Z,99920.55
2019-02-02T17:49:21.839Z,99925.34
2019-02-02T17:51:52.093Z,99927.52
2019-02-02T17:54:22.269Z,99920.98
2019-02-02T17:56:52.352Z,99921.88
2019-02-02T17:59:23.700Z,99934.48
2019-02-02T18:01:56.882Z,99926.66
2019-02-02T18:04:38.798Z,99930.16
2019-02-02T18:07:00.115Z,99926.66
2019-02-02T18:09:30.129Z,99928.39
2019-02-02T18:12:03.938Z,99941.02
2019-02-02T18:14:34.396Z,99939.72
2019-02-02T18:17:06.529Z,99943.64
2019-02-02T18:19:41.904Z,99944.50
2019-02-02T18:22:12.962Z,99950.59
2019-02-02T18:24:46.368Z,99959.30
2019-02-02T18:27:18.256Z,99968.47
2019-02-02T18:29:48.616Z,99968.89
2019-02-02T18:32:22.863Z,99971.94
2019-02-02T18:34:53.741Z,99982.39
2019-02-02T18:37:24.026Z,99984.12
2019-02-02T18:39:54.280Z,99983.70
2019-02-02T18:42:24.593Z,99984.14
2019-02-02T18:44:54.789Z,99983.70
2019-02-02T18:47:26.924Z,99979.36
2019-02-02T18:50:03.329Z,99974.55
2019-02-02T18:52:36.098Z,99970.58
2019-02-02T18:55:13.940Z,99969.27
2019-02-02T18:57:55.930Z,99980.58
2019-02-02T19:00:28.909Z,99983.67
2019-02-02T19:02:59.377Z,99998.05
2019-02-02T19:05:29.661Z,99999.31
2019-02-02T19:08:02.478Z,100000.66
2019-02-02T19:10:33.971Z,100007.19
2019-02-02T19:16:02.479Z,99998.91
2019-02-02T19:18:32.822Z,99993.19
2019-02-02T19:21:02.896Z,99992.78
2019-02-02T19:23:33.526Z,100000.17
2019-02-02T19:26:04.833Z,100001.88
2019-02-02T19:28:40.131Z,100009.27
2019-02-02T19:31:07.023Z,100008.80
2019-02-02T19:33:38.666Z,100014.03
2019-02-02T19:36:57.876Z,100024.08
2019-02-02T19:39:30.885Z,100034.52
2019-02-02T19:42:01.309Z,100040.64
2019-02-02T19:44:31.577Z,100041.95
2019-02-02T19:47:16.262Z,100045.43
2019-02-02T19:49:40.814Z,100043.27
2019-02-02T19:52:11.229Z,100052.45
2019-02-02T19:54:42.438Z,100050.70
2019-02-02T19:57:13.206Z,100067.23
2019-02-02T19:59:46.121Z,100070.29
2019-02-02T20:02:33.847Z,100076.38
2019-02-02T20:05:09.402Z,100077.72
2019-02-02T20:07:42.771Z,100076.38
2019-02-02T20:10:16.073Z,100078.52
2019-02-02T20:12:46.833Z,100076.31
2019-02-02T20:15:18.976Z,100096.30
2019-02-02T20:17:49.659Z,100090.22
2019-02-02T20:20:22.923Z,100091.11
2019-02-02T20:22:54.368Z,100090.27
2019-02-02T20:25:30.241Z,100101.58
2019-02-02T20:28:05.069Z,100093.75
2019-02-02T20:30:36.990Z,100093.34
2019-02-02T20:33:10.597Z,100102.94
2019-02-02T20:35:42.413Z,100105.95
2019-02-02T20:38:12.612Z,100114.70
2019-02-02T20:40:42.932Z,100124.25
2019-02-02T20:43:13.136Z,100132.14
2019-02-02T20:45:43.374Z,100133.91
2019-02-02T20:48:13.597Z,100150.48
2019-02-02T20:50:55.188Z,100141.75
2019-02-02T20:53:25.562Z,100152.20
2019-02-02T20:55:57.948Z,100154.40
2019-02-02T20:58:28.209Z,100157.03
2019-02-02T21:00:58.967Z,100158.79
2019-02-02T21:03:30.703Z,100163.56
2019-02-02T21:06:00.945Z,100167.94
2019-02-02T21:08:33.505Z,100170.55
2019-02-02T21:11:04.279Z,100171.38
2019-02-02T21:13:34.399Z,100171.38
2019-02-02T21:16:06.210Z,100172.25
2019-02-02T21:18:43.524Z,100177.47
2019-02-02T21:21:14.285Z,100170.88
2019-02-02T21:23:45.242Z,100179.22
2019-02-02T21:26:17.258Z,100185.71
2019-02-02T21:28:50.510Z,100203.16
2019-02-02T21:31:23.496Z,100214.52
2019-02-02T21:33:55.896Z,100219.30
2019-02-02T21:36:26.165Z,100228.95
2019-02-02T21:38:59.607Z,100232.86
2019-02-02T21:41:30.215Z,100244.64
2019-02-02T21:44:00.998Z,100253.31
2019-02-02T21:46:31.736Z,100262.02
2019-02-02T21:49:02.119Z,100274.14
2019-02-02T21:51:33.234Z,100287.22
2019-02-02T21:54:06.218Z,100291.16
2019-02-02T21:56:38.465Z,100296.45
2019-02-02T21:59:08.739Z,100309.81
2019-02-02T22:01:38.692Z,100312.41
2019-02-02T22:04:08.695Z,100315.52
2019-02-02T22:06:40.732Z,100312.89
2019-02-02T22:09:11.330Z,100322.89
2019-02-02T22:11:42.018Z,100325.08
2019-02-02T22:14:13.580Z,100330.26
2019-02-02T22:16:43.892Z,100332.40
2019-02-02T22:19:15.924Z,100338.98
2019-02-02T22:21:46.048Z,100347.28
2019-02-02T22:24:16.684Z,100344.23
2019-02-02T22:26:46.924Z,100349.43
2019-02-02T22:29:17.374Z,100352.07
2019-02-02T22:31:47.802Z,100356.84
2019-02-02T22:34:18.038Z,100357.27
2019-02-02T22:36:49.478Z,100355.55
2019-02-02T22:39:19.471Z,100355.08
2019-02-02T22:41:49.460Z,100360.30
2019-02-02T22:44:19.473Z,100361.12
2019-02-02T22:46:50.550Z,100371.63
2019-02-02T22:49:20.694Z,100375.45
2019-02-02T22:51:51.060Z,100382.85
2019-02-02T22:54:26.164Z,100391.50
2019-02-02T22:56:56.194Z,100401.94
2019-02-02T22:59:26.670Z,100408.92
2019-02-02T23:02:01.660Z,100409.41
2019-02-02T23:05:15.370Z,100423.70
2019-02-02T23:07:59.268Z,100428.59
2019-02-02T23:11:13.425Z,100443.49
2019-02-02T23:14:27.329Z,100448.27
2019-02-02T23:16:57.289Z,100456.14
2019-02-02T23:19:27.155Z,100461.43
2019-02-02T23:21:57.017Z,100469.28
2019-02-02T23:24:26.925Z,100466.23
2019-02-02T23:26:59.918Z,100480.67
2019-02-02T23:29:30.137Z,100487.11
2019-02-02T23:32:00.759Z,100482.62
2019-02-02T23:34:33.380Z,100480.02
2019-02-02T23:37:04.169Z,100472.48
2019-02-02T23:39:34.600Z,100472.52
2019-02-02T23:42:07.903Z,100473.42
2019-02-02T23:44:37.830Z,100468.92
2019-02-02T23:47:07.794Z,100467.13
2019-02-02T23:49:38.790Z,100462.20
2019-02-02T23:52:11.944Z,100463.53
2019-02-02T23:54:42.060Z,100476.58
2019-02-02T23:57:17.601Z,100479.95
2019-02-02T23:59:47.581Z,100481.52
